sensor_id;sensor_type;location;lat;lon;timestamp;P1;durP1;ratioP1;P2;durP2;ratioP2
70075;SDS011;63241;51.056;3.698;2023-03-16T09:07:57;5.50;;;1.45;;
70075;SDS011;63241;51.056;3.698;2023-03-16T09:10:26;6.20;;;1.50;;
70075;SDS011;63241;51.056;3.698;2023-03-16T09:18:40;3.72;;;1.45;;
70075;SDS011;63241;51.056;3.698;2023-03-16T09:21:09;5.15;;;2.00;;
70075;SDS011;63241;51.056;3.698;2023-03-16T09:23:40;6.92;;;2.10;;
70075;SDS011;63241;51.056;3.698;2023-03-16T09:31:58;8.58;;;1.70;;
70075;SDS011;63241;51.056;3.698;2023-03-16T09:34:25;6.25;;;1.95;;
70075;SDS011;63241;51.056;3.698;2023-03-16T09:36:53;4.65;;;1.75;;
70075;SDS011;63241;51.056;3.698;2023-03-16T09:45:59;7.03;;;1.90;;
70075;SDS011;63241;51.056;3.698;2023-03-16T09:48:34;4.65;;;1.80;;
70075;SDS011;63241;51.056;3.698;2023-03-16T09:51:04;3.98;;;1.75;;
70075;SDS011;63241;51.056;3.698;2023-03-16T09:59:34;10.20;;;2.02;;
70075;SDS011;63241;51.056;3.698;2023-03-16T10:05:01;4.90;;;1.55;;
70075;SDS011;63241;51.056;3.698;2023-03-16T10:14:04;7.90;;;1.70;;
70075;SDS011;63241;51.056;3.698;2023-03-16T10:17:00;5.37;;;1.55;;
70075;SDS011;63241;51.056;3.698;2023-03-16T10:19:32;3.55;;;1.72;;
70075;SDS011;63241;51.056;3.698;2023-03-16T11:34:02;6.53;;;2.15;;
70075;SDS011;63241;51.056;3.698;2023-03-16T11:50:27;7.65;;;1.57;;
70075;SDS011;63241;51.056;3.698;2023-03-16T12:37:06;7.75;;;1.70;;
70075;SDS011;63241;51.056;3.698;2023-03-16T12:42:24;7.78;;;2.05;;
70075;SDS011;63241;51.056;3.698;2023-03-16T12:45:06;4.20;;;1.67;;
70075;SDS011;63241;51.056;3.698;2023-03-16T12:51:31;3.72;;;1.50;;
70075;SDS011;63241;51.056;3.698;2023-03-16T12:54:18;4.28;;;1.55;;
70075;SDS011;63241;51.056;3.698;2023-03-16T12:56:47;4.62;;;1.70;;
70075;SDS011;63241;51.056;3.698;2023-03-16T12:59:19;10.10;;;2.00;;
70075;SDS011;63241;51.056;3.698;2023-03-16T13:08:05;4.62;;;1.85;;
70075;SDS011;63241;51.056;3.698;2023-03-16T13:10:38;6.70;;;1.95;;
70075;SDS011;63241;51.056;3.698;2023-03-16T13:13:08;5.20;;;1.70;;
70075;SDS011;63241;51.056;3.698;2023-03-16T13:15:41;3.58;;;1.70;;
70075;SDS011;63241;51.056;3.698;2023-03-16T13:21:14;4.50;;;1.75;;
70075;SDS011;63241;51.056;3.698;2023-03-16T13:23:57;6.05;;;1.77;;
70075;SDS011;63241;51.056;3.698;2023-03-16T13:26:38;5.05;;;1.95;;
70075;SDS011;63241;51.056;3.698;2023-03-16T13:35:29;6.60;;;1.75;;
70075;SDS011;63241;51.056;3.698;2023-03-16T13:38:02;4.97;;;2.20;;
70075;SDS011;63241;51.056;3.698;2023-03-16T13:40:31;4.00;;;1.40;;
70075;SDS011;63241;51.056;3.698;2023-03-16T13:43:01;4.70;;;1.77;;
70075;SDS011;63241;51.056;3.698;2023-03-16T13:45:32;6.15;;;1.30;;
70075;SDS011;63241;51.056;3.698;2023-03-16T13:48:02;5.70;;;1.45;;
70075;SDS011;63241;51.056;3.698;2023-03-16T13:50:30;3.25;;;1.50;;
70075;SDS011;63241;51.056;3.698;2023-03-16T13:53:00;3.62;;;1.60;;
70075;SDS011;63241;51.056;3.698;2023-03-16T13:55:34;5.50;;;1.60;;
70075;SDS011;63241;51.056;3.698;2023-03-16T13:58:00;4.60;;;1.60;;
70075;SDS011;63241;51.056;3.698;2023-03-16T14:00:30;5.92;;;1.60;;
70075;SDS011;63241;51.056;3.698;2023-03-16T14:03:17;5.03;;;2.00;;
70075;SDS011;63241;51.056;3.698;2023-03-16T14:05:43;5.83;;;1.90;;
70075;SDS011;63241;51.056;3.698;2023-03-16T14:08:14;3.50;;;1.62;;
70075;SDS011;63241;51.056;3.698;2023-03-16T14:10:47;5.28;;;1.77;;
70075;SDS011;63241;51.056;3.698;2023-03-16T14:13:24;4.00;;;1.42;;
70075;SDS011;63241;51.056;3.698;2023-03-16T14:15:55;1.92;;;1.05;;
70075;SDS011;63241;51.056;3.698;2023-03-16T14:18:26;4.07;;;1.80;;
70075;SDS011;63241;51.056;3.698;2023-03-16T14:20:58;5.17;;;1.65;;
70075;SDS011;63241;51.056;3.698;2023-03-16T14:23:34;2.80;;;1.30;;
70075;SDS011;63241;51.056;3.698;2023-03-16T14:25:58;4.08;;;1.30;;
70075;SDS011;63241;51.056;3.698;2023-03-16T14:28:29;4.12;;;1.45;;
70075;SDS011;63241;51.056;3.698;2023-03-16T14:31:03;5.78;;;1.47;;
70075;SDS011;63241;51.056;3.698;2023-03-16T14:33:37;2.98;;;1.40;;
70075;SDS011;63241;51.056;3.698;2023-03-16T14:36:12;6.78;;;2.00;;
70075;SDS011;63241;51.056;3.698;2023-03-16T14:38:38;5.15;;;1.67;;
70075;SDS011;63241;51.056;3.698;2023-03-16T14:43:53;5.40;;;1.62;;
70075;SDS011;63241;51.056;3.698;2023-03-16T14:46:32;3.37;;;1.30;;
70075;SDS011;63241;51.056;3.698;2023-03-16T14:49:05;5.28;;;1.60;;
70075;SDS011;63241;51.056;3.698;2023-03-16T14:51:36;4.60;;;1.60;;
70075;SDS011;63241;51.056;3.698;2023-03-16T14:54:16;5.80;;;1.70;;
70075;SDS011;63241;51.056;3.698;2023-03-16T14:56:39;5.28;;;1.70;;
70075;SDS011;63241;51.056;3.698;2023-03-16T14:59:08;11.10;;;2.87;;
70075;SDS011;63241;51.056;3.698;2023-03-16T15:01:36;4.60;;;1.87;;
70075;SDS011;63241;51.056;3.698;2023-03-16T15:04:04;5.40;;;1.40;;
70075;SDS011;63241;51.056;3.698;2023-03-16T15:06:32;7.40;;;2.05;;
70075;SDS011;63241;51.056;3.698;2023-03-16T15:09:00;6.78;;;1.65;;
70075;SDS011;63241;51.056;3.698;2023-03-16T15:11:28;3.72;;;1.60;;
70075;SDS011;63241;51.056;3.698;2023-03-16T15:13:56;4.70;;;1.60;;
70075;SDS011;63241;51.056;3.698;2023-03-16T15:16:31;3.17;;;1.72;;
70075;SDS011;63241;51.056;3.698;2023-03-16T15:18:59;3.35;;;1.55;;
70075;SDS011;63241;51.056;3.698;2023-03-16T15:21:27;5.75;;;1.67;;
70075;SDS011;63241;51.056;3.698;2023-03-16T15:23:55;3.47;;;1.90;;
70075;SDS011;63241;51.056;3.698;2023-03-16T15:26:23;4.08;;;1.75;;
70075;SDS011;63241;51.056;3.698;2023-03-16T15:28:53;4.78;;;1.85;;
70075;SDS011;63241;51.056;3.698;2023-03-16T15:31:22;7.75;;;2.25;;
70075;SDS011;63241;51.056;3.698;2023-03-16T15:33:50;7.87;;;1.75;;
70075;SDS011;63241;51.056;3.698;2023-03-16T15:36:19;4.85;;;2.17;;
70075;SDS011;63241;51.056;3.698;2023-03-16T15:38:50;5.65;;;2.00;;
70075;SDS011;63241;51.056;3.698;2023-03-16T15:41:20;4.08;;;2.02;;
70075;SDS011;63241;51.056;3.698;2023-03-16T15:43:51;6.97;;;2.22;;
70075;SDS011;63241;51.056;3.698;2023-03-16T15:46:20;3.50;;;1.60;;
70075;SDS011;63241;51.056;3.698;2023-03-16T15:48:48;3.87;;;1.72;;
70075;SDS011;63241;51.056;3.698;2023-03-16T15:53:52;4.47;;;1.80;;
70075;SDS011;63241;51.056;3.698;2023-03-16T15:56:24;4.43;;;1.70;;
70075;SDS011;63241;51.056;3.698;2023-03-16T15:58:55;5.12;;;1.67;;
70075;SDS011;63241;51.056;3.698;2023-03-16T16:01:27;3.80;;;1.92;;
70075;SDS011;63241;51.056;3.698;2023-03-16T16:03:58;6.05;;;2.12;;
70075;SDS011;63241;51.056;3.698;2023-03-16T16:06:26;4.58;;;2.22;;
70075;SDS011;63241;51.056;3.698;2023-03-16T16:08:55;4.85;;;2.17;;
70075;SDS011;63241;51.056;3.698;2023-03-16T16:11:28;5.42;;;2.30;;
70075;SDS011;63241;51.056;3.698;2023-03-16T16:13:54;5.40;;;2.10;;
70075;SDS011;63241;51.056;3.698;2023-03-16T16:16:25;4.87;;;2.00;;
70075;SDS011;63241;51.056;3.698;2023-03-16T16:18:54;5.28;;;2.20;;
70075;SDS011;63241;51.056;3.698;2023-03-16T16:21:22;4.62;;;2.27;;
70075;SDS011;63241;51.056;3.698;2023-03-16T16:23:53;5.55;;;2.33;;
70075;SDS011;63241;51.056;3.698;2023-03-16T16:26:26;4.37;;;2.30;;
70075;SDS011;63241;51.056;3.698;2023-03-16T16:28:55;3.72;;;2.10;;
70075;SDS011;63241;51.056;3.698;2023-03-16T16:31:27;4.97;;;2.20;;
70075;SDS011;63241;51.056;3.698;2023-03-16T16:33:56;5.85;;;2.52;;
70075;SDS011;63241;51.056;3.698;2023-03-16T16:36:24;5.22;;;2.33;;
70075;SDS011;63241;51.056;3.698;2023-03-16T16:38:52;6.72;;;2.70;;
70075;SDS011;63241;51.056;3.698;2023-03-16T16:41:31;4.28;;;2.30;;
70075;SDS011;63241;51.056;3.698;2023-03-16T16:43:58;6.25;;;2.62;;
70075;SDS011;63241;51.056;3.698;2023-03-16T16:46:28;5.03;;;2.50;;
70075;SDS011;63241;51.056;3.698;2023-03-16T16:48:59;5.65;;;2.30;;
70075;SDS011;63241;51.056;3.698;2023-03-16T16:51:30;7.33;;;2.50;;
70075;SDS011;63241;51.056;3.698;2023-03-16T16:53:58;7.62;;;2.85;;
70075;SDS011;63241;51.056;3.698;2023-03-16T16:56:28;6.78;;;2.40;;
70075;SDS011;63241;51.056;3.698;2023-03-16T16:58:58;5.55;;;2.35;;
70075;SDS011;63241;51.056;3.698;2023-03-16T17:01:39;5.42;;;2.58;;
70075;SDS011;63241;51.056;3.698;2023-03-16T17:04:18;8.05;;;2.83;;
70075;SDS011;63241;51.056;3.698;2023-03-16T17:06:41;5.08;;;2.58;;
70075;SDS011;63241;51.056;3.698;2023-03-16T17:09:09;9.63;;;3.00;;
70075;SDS011;63241;51.056;3.698;2023-03-16T17:11:39;3.60;;;2.33;;
70075;SDS011;63241;51.056;3.698;2023-03-16T17:14:10;5.92;;;2.47;;
70075;SDS011;63241;51.056;3.698;2023-03-16T17:16:40;4.17;;;2.25;;
70075;SDS011;63241;51.056;3.698;2023-03-16T17:19:13;4.83;;;2.55;;
70075;SDS011;63241;51.056;3.698;2023-03-16T17:21:44;5.12;;;2.40;;
70075;SDS011;63241;51.056;3.698;2023-03-16T17:24:13;4.95;;;3.15;;
70075;SDS011;63241;51.056;3.698;2023-03-16T17:26:46;4.65;;;2.50;;
70075;SDS011;63241;51.056;3.698;2023-03-16T17:34:44;3.92;;;2.80;;
70075;SDS011;63241;51.056;3.698;2023-03-16T17:37:12;6.40;;;2.98;;
70075;SDS011;63241;51.056;3.698;2023-03-16T17:39:42;4.83;;;2.65;;
70075;SDS011;63241;51.056;3.698;2023-03-16T17:42:11;5.78;;;2.85;;
70075;SDS011;63241;51.056;3.698;2023-03-16T17:47:12;4.55;;;2.70;;
70075;SDS011;63241;51.056;3.698;2023-03-16T17:49:42;4.28;;;2.77;;
70075;SDS011;63241;51.056;3.698;2023-03-16T17:52:15;8.15;;;3.27;;
70075;SDS011;63241;51.056;3.698;2023-03-16T17:54:46;7.15;;;2.92;;
70075;SDS011;63241;51.056;3.698;2023-03-16T17:57:27;4.55;;;2.60;;
70075;SDS011;63241;51.056;3.698;2023-03-16T18:00:03;6.03;;;2.75;;
70075;SDS011;63241;51.056;3.698;2023-03-16T18:05:20;5.78;;;2.80;;
70075;SDS011;63241;51.056;3.698;2023-03-16T18:07:50;5.50;;;2.67;;
70075;SDS011;63241;51.056;3.698;2023-03-16T18:10:22;5.58;;;2.67;;
70075;SDS011;63241;51.056;3.698;2023-03-16T18:12:57;5.22;;;2.72;;
70075;SDS011;63241;51.056;3.698;2023-03-16T18:15:32;5.50;;;2.72;;
70075;SDS011;63241;51.056;3.698;2023-03-16T18:18:04;6.70;;;2.72;;
70075;SDS011;63241;51.056;3.698;2023-03-16T18:20:33;6.20;;;2.77;;
70075;SDS011;63241;51.056;3.698;2023-03-16T18:23:04;5.42;;;2.85;;
70075;SDS011;63241;51.056;3.698;2023-03-16T18:25:41;3.90;;;2.45;;
70075;SDS011;63241;51.056;3.698;2023-03-16T18:28:09;7.40;;;2.52;;
70075;SDS011;63241;51.056;3.698;2023-03-16T18:30:39;8.23;;;2.87;;
70075;SDS011;63241;51.056;3.698;2023-03-16T18:33:20;8.45;;;3.05;;
70075;SDS011;63241;51.056;3.698;2023-03-16T19:11:03;6.28;;;3.27;;
70075;SDS011;63241;51.056;3.698;2023-03-16T19:13:32;5.65;;;2.87;;
70075;SDS011;63241;51.056;3.698;2023-03-16T19:16:00;5.03;;;2.75;;
70075;SDS011;63241;51.056;3.698;2023-03-16T19:18:31;5.85;;;2.90;;
70075;SDS011;63241;51.056;3.698;2023-03-16T19:24:17;5.05;;;3.15;;
70075;SDS011;63241;51.056;3.698;2023-03-16T19:26:45;7.53;;;3.30;;
70075;SDS011;63241;51.056;3.698;2023-03-16T19:29:13;5.03;;;2.92;;
70075;SDS011;63241;51.056;3.698;2023-03-16T19:38:02;8.85;;;3.00;;
70075;SDS011;63241;51.056;3.698;2023-03-16T19:40:29;6.17;;;3.25;;
70075;SDS011;63241;51.056;3.698;2023-03-16T19:42:57;4.92;;;2.98;;
70075;SDS011;63241;51.056;3.698;2023-03-16T19:51:52;6.03;;;3.00;;
70075;SDS011;63241;51.056;3.698;2023-03-16T19:54:22;5.50;;;3.00;;
70075;SDS011;63241;51.056;3.698;2023-03-16T19:56:52;5.17;;;2.60;;
70075;SDS011;63241;51.056;3.698;2023-03-16T20:02:41;6.20;;;2.70;;
70075;SDS011;63241;51.056;3.698;2023-03-16T20:05:17;6.30;;;2.67;;
70075;SDS011;63241;51.056;3.698;2023-03-16T20:07:47;5.35;;;2.62;;
70075;SDS011;63241;51.056;3.698;2023-03-16T20:10:16;6.75;;;2.52;;
70075;SDS011;63241;51.056;3.698;2023-03-16T20:19:09;6.28;;;2.47;;
70075;SDS011;63241;51.056;3.698;2023-03-16T20:21:40;4.85;;;2.60;;
70075;SDS011;63241;51.056;3.698;2023-03-16T20:24:18;4.47;;;2.40;;
70075;SDS011;63241;51.056;3.698;2023-03-16T20:30:12;7.08;;;2.65;;
70075;SDS011;63241;51.056;3.698;2023-03-16T20:32:45;5.50;;;2.35;;
70075;SDS011;63241;51.056;3.698;2023-03-16T20:35:21;4.83;;;2.27;;
70075;SDS011;63241;51.056;3.698;2023-03-16T20:37:47;3.80;;;2.25;;
70075;SDS011;63241;51.056;3.698;2023-03-16T20:46:31;4.72;;;2.50;;
70075;SDS011;63241;51.056;3.698;2023-03-16T20:48:59;3.15;;;2.33;;
70075;SDS011;63241;51.056;3.698;2023-03-16T20:51:27;6.53;;;2.00;;
70075;SDS011;63241;51.056;3.698;2023-03-16T21:00:23;4.95;;;2.65;;
70075;SDS011;63241;51.056;3.698;2023-03-16T21:02:48;4.15;;;2.20;;
70075;SDS011;63241;51.056;3.698;2023-03-16T21:05:15;7.20;;;3.10;;
70075;SDS011;63241;51.056;3.698;2023-03-16T21:08:04;4.40;;;2.50;;
70075;SDS011;63241;51.056;3.698;2023-03-16T21:13:52;5.83;;;2.52;;
70075;SDS011;63241;51.056;3.698;2023-03-16T21:16:21;4.80;;;2.45;;
70075;SDS011;63241;51.056;3.698;2023-03-16T21:18:50;6.67;;;2.80;;
70075;SDS011;63241;51.056;3.698;2023-03-16T21:21:19;5.62;;;3.00;;
70075;SDS011;63241;51.056;3.698;2023-03-16T21:27:09;8.33;;;2.20;;
70075;SDS011;63241;51.056;3.698;2023-03-16T21:29:40;3.37;;;2.27;;
70075;SDS011;63241;51.056;3.698;2023-03-16T21:32:17;4.20;;;2.20;;
70075;SDS011;63241;51.056;3.698;2023-03-16T22:54:24;3.12;;;1.82;;
70075;SDS011;63241;51.056;3.698;2023-03-16T22:56:54;4.10;;;1.70;;
70075;SDS011;63241;51.056;3.698;2023-03-16T22:59:23;5.10;;;1.95;;
70075;SDS011;63241;51.056;3.698;2023-03-16T23:01:52;6.22;;;1.57;;
70075;SDS011;63241;51.056;3.698;2023-03-16T23:04:22;3.25;;;1.70;;
70075;SDS011;63241;51.056;3.698;2023-03-16T23:06:53;3.75;;;1.95;;
70075;SDS011;63241;51.056;3.698;2023-03-16T23:09:21;3.85;;;1.65;;
70075;SDS011;63241;51.056;3.698;2023-03-16T23:11:54;6.53;;;1.92;;
70075;SDS011;63241;51.056;3.698;2023-03-16T23:14:20;3.67;;;1.87;;
70075;SDS011;63241;51.056;3.698;2023-03-16T23:16:50;4.67;;;1.92;;
70075;SDS011;63241;51.056;3.698;2023-03-16T23:19:33;5.15;;;2.02;;
70075;SDS011;63241;51.056;3.698;2023-03-16T23:21:59;6.15;;;2.10;;
70075;SDS011;63241;51.056;3.698;2023-03-16T23:24:30;3.12;;;2.02;;
70075;SDS011;63241;51.056;3.698;2023-03-16T23:26:59;3.77;;;2.00;;
70075;SDS011;63241;51.056;3.698;2023-03-16T23:29:27;5.12;;;2.22;;
70075;SDS011;63241;51.056;3.698;2023-03-16T23:31:55;5.28;;;1.95;;
70075;SDS011;63241;51.056;3.698;2023-03-16T23:34:23;2.77;;;1.90;;
70075;SDS011;63241;51.056;3.698;2023-03-16T23:36:52;2.72;;;1.77;;
70075;SDS011;63241;51.056;3.698;2023-03-16T23:39:19;4.08;;;1.90;;
70075;SDS011;63241;51.056;3.698;2023-03-16T23:41:47;2.80;;;1.80;;
70075;SDS011;63241;51.056;3.698;2023-03-16T23:44:22;3.80;;;1.98;;
70075;SDS011;63241;51.056;3.698;2023-03-16T23:46:52;3.17;;;2.02;;
70075;SDS011;63241;51.056;3.698;2023-03-16T23:49:21;6.95;;;2.20;;
70075;SDS011;63241;51.056;3.698;2023-03-16T23:51:51;3.08;;;2.00;;
70075;SDS011;63241;51.056;3.698;2023-03-16T23:54:22;4.50;;;2.00;;
70075;SDS011;63241;51.056;3.698;2023-03-16T23:56:52;3.98;;;1.77;;
70075;SDS011;63241;51.056;3.698;2023-03-16T23:59:20;4.10;;;2.12;;
